createdAt,value
2019-03-26T00:00:04.910Z,19.77
2019-03-26T00:01:04.893Z,19.78
2019-03-26T00:02:04.887Z,19.77
2019-03-26T00:03:04.871Z,19.78
2019-03-26T00:04:06.231Z,19.77
2019-03-26T00:05:04.857Z,19.77
2019-03-26T00:06:04.842Z,19.77
2019-03-26T00:07:04.834Z,19.76
2019-03-26T00:08:04.825Z,19.76
2019-03-26T00:09:04.808Z,19.77
2019-03-26T00:10:04.825Z,19.76
2019-03-26T00:11:04.792Z,19.76
2019-03-26T00:12:04.783Z,19.76
2019-03-26T00:13:04.772Z,19.77
2019-03-26T00:14:04.760Z,19.74
2019-03-26T00:15:04.748Z,19.74
2019-03-26T00:16:04.755Z,19.74
2019-03-26T00:17:04.731Z,19.74
2019-03-26T00:18:04.720Z,19.74
2019-03-26T00:19:04.716Z,19.74
2019-03-26T00:20:04.914Z,19.73
2019-03-26T00:21:04.686Z,19.73
2019-03-26T00:22:04.680Z,19.73
2019-03-26T00:23:04.666Z,19.73
2019-03-26T00:24:04.655Z,19.71
2019-03-26T00:25:04.645Z,19.71
2019-03-26T00:26:04.656Z,19.73
2019-03-26T00:27:07.612Z,19.71
2019-03-26T00:28:04.610Z,19.71
2019-03-26T00:29:04.602Z,19.71
2019-03-26T00:30:04.591Z,19.69
2019-03-26T00:31:04.617Z,19.71
2019-03-26T00:32:04.571Z,19.69
2019-03-26T00:33:04.560Z,19.69
2019-03-26T00:34:04.549Z,19.69
2019-03-26T00:35:04.539Z,19.68
2019-03-26T00:36:04.529Z,19.69
2019-03-26T00:37:04.546Z,19.68
2019-03-26T00:38:04.514Z,19.66
2019-03-26T00:39:04.507Z,19.66
2019-03-26T00:40:04.483Z,19.66
2019-03-26T00:41:04.471Z,19.66
2019-03-26T00:42:04.467Z,19.65
2019-03-26T00:43:04.478Z,19.66
2019-03-26T00:44:04.460Z,19.65
2019-03-26T00:45:04.448Z,19.66
2019-03-26T00:46:04.425Z,19.66
2019-03-26T00:47:04.414Z,19.65
2019-03-26T00:48:04.397Z,19.65
2019-03-26T00:49:04.424Z,19.66
2019-03-26T00:50:04.383Z,19.65
2019-03-26T00:51:04.385Z,19.65
2019-03-26T00:52:04.364Z,19.65
2019-03-26T00:53:04.348Z,19.63
2019-03-26T00:54:04.341Z,19.63
2019-03-26T00:55:04.350Z,19.63
2019-03-26T00:56:04.316Z,19.63
2019-03-26T00:57:04.309Z,19.63
2019-03-26T00:58:04.316Z,19.65
2019-03-26T00:59:04.307Z,19.63
2019-03-26T01:00:04.275Z,19.63
2019-03-26T01:01:04.264Z,19.63
2019-03-26T01:02:04.273Z,19.63
2019-03-26T01:03:04.238Z,19.62
2019-03-26T01:04:04.268Z,19.65
2019-03-26T01:05:04.226Z,19.65
2019-03-26T01:06:04.214Z,19.63
2019-03-26T01:07:04.204Z,19.63
2019-03-26T01:08:04.188Z,19.63
2019-03-26T01:09:04.180Z,19.63
2019-03-26T01:10:04.204Z,19.65
2019-03-26T01:11:04.162Z,19.63
2019-03-26T01:12:04.160Z,19.63
2019-03-26T01:13:04.137Z,19.63
2019-03-26T01:14:04.128Z,19.63
2019-03-26T01:15:04.113Z,19.63
2019-03-26T01:16:04.137Z,19.63
2019-03-26T01:17:04.094Z,19.65
2019-03-26T01:18:04.083Z,19.65
2019-03-26T01:19:04.072Z,19.65
2019-03-26T01:20:04.067Z,19.63
2019-03-26T01:21:04.055Z,19.65
2019-03-26T01:22:04.085Z,19.65
2019-03-26T01:23:04.032Z,19.68
2019-03-26T01:24:04.026Z,19.66
2019-03-26T01:25:04.032Z,19.66
2019-03-26T01:26:04.002Z,19.66
2019-03-26T01:27:03.994Z,19.65
2019-03-26T01:28:03.977Z,19.68
2019-03-26T01:29:03.964Z,19.66
2019-03-26T01:30:03.988Z,19.65
2019-03-26T01:31:03.945Z,19.66
2019-03-26T01:32:03.934Z,19.66
2019-03-26T01:33:03.929Z,19.66
2019-03-26T01:34:03.911Z,19.66
2019-03-26T01:35:03.906Z,19.66
2019-03-26T01:36:03.913Z,19.66
2019-03-26T01:37:03.886Z,19.66
2019-03-26T01:38:03.903Z,19.66
2019-03-26T01:39:03.865Z,19.66
2019-03-26T01:40:03.875Z,19.68
2019-03-26T01:41:03.845Z,19.66
2019-03-26T01:42:03.826Z,19.66
2019-03-26T01:43:03.819Z,19.68
2019-03-26T01:44:03.833Z,19.66
2019-03-26T01:45:03.809Z,19.68
2019-03-26T01:46:03.789Z,19.66
2019-03-26T01:47:03.776Z,19.66
2019-03-26T01:48:03.764Z,19.68
2019-03-26T01:49:03.754Z,19.68
2019-03-26T01:50:03.764Z,19.66
2019-03-26T01:51:03.739Z,19.66
2019-03-26T01:52:03.726Z,19.66
2019-03-26T01:53:03.715Z,19.68
2019-03-26T01:54:03.730Z,19.66
2019-03-26T01:55:03.689Z,19.68
2019-03-26T01:56:03.687Z,19.68
2019-03-26T01:57:03.672Z,19.66
2019-03-26T01:58:03.758Z,19.68
2019-03-26T01:59:03.667Z,19.68
2019-03-26T02:00:03.647Z,19.66
2019-03-26T02:01:03.632Z,19.68
2019-03-26T02:02:03.656Z,19.66
2019-03-26T02:03:03.616Z,19.66
2019-03-26T02:04:03.601Z,19.68
2019-03-26T02:05:03.609Z,19.65
2019-03-26T02:06:03.578Z,19.65
2019-03-26T02:07:03.570Z,19.65
2019-03-26T02:08:03.573Z,19.66
2019-03-26T02:09:03.550Z,19.66
2019-03-26T02:10:03.552Z,19.65
2019-03-26T02:11:03.548Z,19.63
2019-03-26T02:12:03.517Z,19.65
2019-03-26T02:13:03.513Z,19.66
2019-03-26T02:14:03.495Z,19.63
2019-03-26T02:15:03.486Z,19.65
2019-03-26T02:16:03.472Z,19.63
2019-03-26T02:17:03.483Z,19.63
2019-03-26T02:18:03.464Z,19.63
2019-03-26T02:19:03.439Z,19.63
2019-03-26T02:20:03.429Z,19.63
2019-03-26T02:21:03.417Z,19.63
2019-03-26T02:22:03.409Z,19.63
2019-03-26T02:23:03.414Z,19.65
2019-03-26T02:24:03.401Z,19.63
2019-03-26T02:25:03.377Z,19.63
2019-03-26T02:26:03.372Z,19.62
2019-03-26T02:27:03.352Z,19.61
2019-03-26T02:28:03.397Z,19.62
2019-03-26T02:29:03.342Z,19.62
2019-03-26T02:30:03.326Z,19.62
2019-03-26T02:31:03.362Z,19.63
2019-03-26T02:32:03.300Z,19.61
2019-03-26T02:33:03.299Z,19.62
2019-03-26T02:34:03.307Z,19.61
2019-03-26T02:35:16.879Z,19.62
2019-03-26T02:36:04.269Z,19.62
2019-03-26T02:37:03.255Z,19.62
2019-03-26T02:38:03.242Z,19.62
2019-03-26T02:39:03.235Z,19.62
2019-03-26T02:40:03.243Z,19.62
2019-03-26T02:41:03.230Z,19.61
2019-03-26T02:42:03.197Z,19.62
2019-03-26T02:43:03.192Z,19.61
2019-03-26T02:44:03.184Z,19.62
2019-03-26T02:45:03.169Z,19.61
2019-03-26T02:46:03.180Z,19.61
2019-03-26T02:47:03.145Z,19.61
2019-03-26T02:48:03.141Z,19.61
2019-03-26T02:49:03.123Z,19.61
2019-03-26T02:50:03.109Z,19.61
2019-03-26T02:51:03.146Z,19.61
2019-03-26T02:52:03.098Z,19.61
2019-03-26T02:53:03.084Z,19.59
2019-03-26T02:54:03.069Z,19.59
2019-03-26T02:55:03.060Z,19.62
2019-03-26T02:56:03.053Z,19.61
2019-03-26T02:57:03.056Z,19.61
2019-03-26T02:58:03.049Z,19.61
2019-03-26T02:59:03.026Z,19.61
2019-03-26T03:00:03.012Z,19.59
2019-03-26T03:01:03.018Z,19.61
2019-03-26T03:02:02.986Z,19.59
2019-03-26T03:03:03.013Z,19.61
2019-03-26T03:04:02.965Z,19.59
2019-03-26T03:05:02.957Z,19.61
2019-03-26T03:06:02.946Z,19.61
2019-03-26T03:07:02.937Z,19.59
2019-03-26T03:08:02.924Z,19.59
2019-03-26T03:09:02.944Z,19.59
2019-03-26T03:10:02.909Z,19.59
2019-03-26T03:11:02.896Z,19.61
2019-03-26T03:12:02.884Z,19.59
2019-03-26T03:13:02.866Z,19.61
2019-03-26T03:14:02.877Z,19.61
2019-03-26T03:15:02.909Z,19.62
2019-03-26T03:16:02.834Z,19.61
2019-03-26T03:17:02.824Z,19.61
2019-03-26T03:18:02.819Z,19.61
2019-03-26T03:19:02.809Z,19.62
2019-03-26T03:20:02.797Z,19.61
2019-03-26T03:21:02.807Z,19.61
2019-03-26T03:22:02.788Z,19.61
2019-03-26T03:23:02.768Z,19.62
2019-03-26T03:24:02.778Z,19.61
2019-03-26T03:25:02.746Z,19.61
2019-03-26T03:26:02.956Z,19.61
2019-03-26T03:27:02.719Z,19.59
2019-03-26T03:28:02.715Z,19.61
2019-03-26T03:29:02.702Z,19.61
2019-03-26T03:30:02.718Z,19.61
2019-03-26T03:31:02.710Z,19.61
2019-03-26T03:32:02.723Z,19.61
2019-03-26T03:33:02.670Z,19.62
2019-03-26T03:34:02.694Z,19.61
2019-03-26T03:35:02.663Z,19.61
2019-03-26T03:36:02.624Z,19.62
2019-03-26T03:37:02.629Z,19.61
2019-03-26T03:38:02.641Z,19.61
2019-03-26T03:39:02.595Z,19.61
2019-03-26T03:40:02.596Z,19.61
2019-03-26T03:41:02.574Z,19.61
2019-03-26T03:42:02.564Z,19.62
2019-03-26T03:43:02.560Z,19.61
2019-03-26T03:44:02.573Z,19.61
2019-03-26T03:45:02.533Z,19.61
2019-03-26T03:46:02.518Z,19.61
2019-03-26T03:47:02.523Z,19.59
2019-03-26T03:48:02.513Z,19.62
2019-03-26T03:49:02.492Z,19.61
2019-03-26T03:50:02.527Z,19.61
2019-03-26T03:51:02.476Z,19.61
2019-03-26T03:52:02.461Z,19.62
2019-03-26T03:53:02.456Z,19.59
2019-03-26T03:54:02.434Z,19.61
2019-03-26T03:55:02.443Z,19.59
2019-03-26T03:56:02.443Z,19.61
2019-03-26T03:57:02.405Z,19.61
2019-03-26T03:58:02.432Z,19.61
2019-03-26T03:59:02.385Z,19.61
2019-03-26T04:00:02.375Z,19.59
2019-03-26T04:01:02.371Z,19.61
2019-03-26T04:02:02.370Z,19.59
2019-03-26T04:03:02.343Z,19.61
2019-03-26T04:04:02.331Z,19.61
2019-03-26T04:05:02.322Z,19.61
2019-03-26T04:06:09.567Z,19.61
2019-03-26T04:07:03.318Z,19.59
2019-03-26T04:08:02.287Z,19.59
2019-03-26T04:09:02.279Z,19.61
2019-03-26T04:10:02.283Z,19.61
2019-03-26T04:11:02.269Z,19.59
2019-03-26T04:12:02.290Z,19.59
2019-03-26T04:13:02.234Z,19.59
2019-03-26T04:14:02.241Z,19.61
2019-03-26T04:15:02.228Z,19.59
2019-03-26T04:16:02.218Z,19.61
2019-03-26T04:17:02.213Z,19.59
2019-03-26T04:18:02.192Z,19.61
2019-03-26T04:19:02.190Z,19.61
2019-03-26T04:20:02.184Z,19.59
2019-03-26T04:21:02.153Z,19.61
2019-03-26T04:22:02.145Z,19.59
2019-03-26T04:23:02.156Z,19.58
2019-03-26T04:24:02.139Z,19.59
2019-03-26T04:25:02.141Z,19.59
2019-03-26T04:26:02.107Z,19.59
2019-03-26T04:27:02.091Z,19.59
2019-03-26T04:28:02.081Z,19.59
2019-03-26T04:29:02.070Z,19.59
2019-03-26T04:30:02.065Z,19.59
2019-03-26T04:31:02.065Z,19.61
2019-03-26T04:32:02.053Z,19.58
2019-03-26T04:33:02.072Z,19.59
2019-03-26T04:34:02.024Z,19.59
2019-03-26T04:35:02.013Z,19.59
2019-03-26T04:36:02.016Z,19.58
2019-03-26T04:37:02.007Z,19.59
2019-03-26T04:38:01.973Z,19.58
2019-03-26T04:39:01.973Z,19.58
2019-03-26T04:40:02.006Z,19.59
2019-03-26T04:41:01.958Z,19.58
2019-03-26T04:42:01.935Z,19.58
2019-03-26T04:43:01.929Z,19.58
2019-03-26T04:44:01.933Z,19.58
2019-03-26T04:45:01.900Z,19.58
2019-03-26T04:46:01.884Z,19.58
2019-03-26T04:47:01.892Z,19.59
2019-03-26T04:48:01.863Z,19.58
2019-03-26T04:49:01.884Z,19.58
2019-03-26T04:50:01.844Z,19.58
2019-03-26T04:51:01.835Z,19.59
2019-03-26T04:52:01.825Z,19.59
2019-03-26T04:53:01.813Z,19.59
2019-03-26T04:54:01.805Z,19.58
2019-03-26T04:55:01.830Z,19.58
2019-03-26T04:56:01.782Z,19.59
2019-03-26T04:57:01.775Z,19.58
2019-03-26T04:58:01.764Z,19.58
2019-03-26T04:59:01.758Z,19.58
2019-03-26T05:00:01.740Z,19.58
2019-03-26T05:01:01.753Z,19.58
2019-03-26T05:02:01.749Z,19.58
2019-03-26T05:03:01.714Z,19.58
2019-03-26T05:04:01.694Z,19.58
2019-03-26T05:05:01.688Z,19.56
2019-03-26T05:06:01.691Z,19.58
2019-03-26T05:07:01.664Z,19.58
2019-03-26T05:08:01.671Z,19.56
2019-03-26T05:09:01.649Z,19.58
2019-03-26T05:10:01.641Z,19.58
2019-03-26T05:11:01.623Z,19.56
2019-03-26T05:12:01.615Z,19.56
2019-03-26T05:13:01.604Z,19.58
2019-03-26T05:14:01.607Z,19.59
2019-03-26T05:15:01.578Z,19.56
2019-03-26T05:16:01.584Z,19.56
2019-03-26T05:17:01.566Z,19.56
2019-03-26T05:18:01.582Z,19.58
2019-03-26T05:19:01.546Z,19.58
2019-03-26T05:20:01.532Z,19.56
2019-03-26T05:21:01.518Z,19.58
2019-03-26T05:22:01.512Z,19.58
2019-03-26T05:23:01.501Z,19.58
2019-03-26T05:24:01.520Z,19.58
2019-03-26T05:25:01.480Z,19.58
2019-03-26T05:26:01.478Z,19.58
2019-03-26T05:27:01.452Z,19.58
2019-03-26T05:28:01.442Z,19.59
2019-03-26T05:29:01.431Z,19.59
2019-03-26T05:30:01.456Z,19.61
2019-03-26T05:31:01.415Z,19.61
2019-03-26T05:32:01.403Z,19.61
2019-03-26T05:33:01.393Z,19.62
2019-03-26T05:34:01.377Z,19.62
2019-03-26T05:35:01.371Z,19.65
2019-03-26T05:36:01.419Z,19.65
2019-03-26T05:37:01.377Z,19.66
2019-03-26T05:38:01.340Z,19.66
2019-03-26T05:39:01.346Z,19.68
2019-03-26T05:40:01.317Z,19.69
2019-03-26T05:41:01.304Z,19.69
2019-03-26T05:42:01.303Z,19.71
2019-03-26T05:43:01.306Z,19.73
2019-03-26T05:44:01.276Z,19.73
2019-03-26T05:45:01.270Z,19.74
2019-03-26T05:46:01.256Z,19.76
2019-03-26T05:47:01.857Z,19.76
2019-03-26T05:48:01.255Z,19.77
2019-03-26T05:49:01.238Z,19.78
2019-03-26T05:50:01.210Z,19.80
2019-03-26T05:51:01.274Z,19.80
2019-03-26T05:52:01.188Z,19.80
2019-03-26T05:53:01.181Z,19.81
2019-03-26T05:54:01.174Z,19.80
2019-03-26T05:55:01.161Z,19.81
2019-03-26T05:56:01.185Z,19.83
2019-03-26T05:57:01.140Z,19.80
2019-03-26T05:58:01.125Z,19.81
2019-03-26T05:59:01.117Z,19.83
2019-03-26T06:00:01.113Z,19.83
2019-03-26T06:01:01.095Z,19.84
2019-03-26T06:02:13.510Z,19.83
2019-03-26T06:03:02.070Z,19.83
2019-03-26T06:04:01.065Z,19.83
2019-03-26T06:05:01.057Z,19.83
2019-03-26T06:06:01.043Z,19.83
2019-03-26T06:07:05.092Z,19.84
2019-03-26T06:08:01.020Z,19.83
2019-03-26T06:09:01.010Z,19.83
2019-03-26T06:10:00.997Z,19.81
2019-03-26T06:11:00.996Z,19.83
2019-03-26T06:12:01.004Z,19.83
2019-03-26T06:13:00.972Z,19.83
2019-03-26T06:14:00.959Z,19.83
2019-03-26T06:15:00.947Z,19.81
2019-03-26T06:16:00.937Z,19.81
2019-03-26T06:17:00.946Z,19.80
2019-03-26T06:18:00.918Z,19.80
2019-03-26T06:19:00.908Z,19.80
2019-03-26T06:20:00.901Z,19.80
2019-03-26T06:21:00.887Z,19.80
2019-03-26T06:22:00.893Z,19.80
2019-03-26T06:23:00.898Z,19.78
2019-03-26T06:24:00.854Z,19.78
2019-03-26T06:25:00.839Z,19.78
2019-03-26T06:26:00.838Z,19.77
2019-03-26T06:27:00.823Z,19.77
2019-03-26T06:28:00.809Z,19.77
2019-03-26T06:29:01.326Z,19.77
2019-03-26T06:30:00.792Z,19.76
2019-03-26T06:31:00.776Z,19.77
2019-03-26T06:32:00.764Z,19.76
2019-03-26T06:33:00.756Z,19.76
2019-03-26T06:34:00.767Z,19.76
2019-03-26T06:35:00.737Z,19.76
2019-03-26T06:36:00.721Z,19.74
2019-03-26T06:37:00.721Z,19.74
2019-03-26T06:38:00.701Z,19.74
2019-03-26T06:39:00.712Z,19.74
2019-03-26T06:40:00.698Z,19.74
2019-03-26T06:41:00.676Z,19.74
2019-03-26T06:42:00.675Z,19.74
2019-03-26T06:43:00.647Z,19.74
2019-03-26T06:44:00.659Z,19.74
2019-03-26T06:45:00.632Z,19.74
2019-03-26T06:46:00.613Z,19.73
2019-03-26T06:47:00.609Z,19.74
2019-03-26T06:48:00.631Z,19.73
2019-03-26T06:49:00.588Z,19.73
2019-03-26T06:50:00.575Z,19.73
2019-03-26T06:51:00.563Z,19.73
2019-03-26T06:52:00.555Z,19.73
2019-03-26T06:53:00.545Z,19.74
2019-03-26T06:54:00.545Z,19.74
2019-03-26T06:55:00.550Z,19.74
2019-03-26T06:56:00.515Z,19.74
2019-03-26T06:57:00.503Z,19.74
2019-03-26T06:58:00.487Z,19.73
2019-03-26T06:59:00.477Z,19.73
2019-03-26T07:00:00.505Z,19.73
2019-03-26T07:01:00.456Z,19.73
2019-03-26T07:02:00.448Z,19.74
2019-03-26T07:03:00.435Z,19.73
2019-03-26T07:04:00.491Z,19.73
2019-03-26T07:05:00.502Z,19.74
2019-03-26T07:06:00.423Z,19.73
2019-03-26T07:07:00.471Z,19.74
2019-03-26T07:08:00.421Z,19.73
2019-03-26T07:09:00.371Z,19.73
2019-03-26T07:10:00.439Z,19.73
2019-03-26T07:11:00.352Z,19.74
2019-03-26T07:12:00.339Z,19.74
2019-03-26T07:13:00.329Z,19.74
2019-03-26T07:14:00.333Z,19.74
2019-03-26T07:15:00.386Z,19.73
2019-03-26T07:16:00.297Z,19.74
2019-03-26T07:17:00.285Z,19.74
2019-03-26T07:18:00.322Z,19.74
2019-03-26T07:19:00.288Z,19.74
2019-03-26T07:20:00.382Z,19.74
2019-03-26T07:21:00.242Z,19.73
2019-03-26T07:22:00.230Z,19.74
2019-03-26T07:23:00.220Z,19.74
2019-03-26T07:24:00.229Z,19.76
2019-03-26T07:25:00.358Z,19.74
2019-03-26T07:26:00.190Z,19.74
2019-03-26T07:27:00.180Z,19.73
2019-03-26T07:28:00.162Z,19.73
2019-03-26T07:29:00.178Z,19.74
2019-03-26T07:30:00.352Z,19.73
2019-03-26T07:31:00.200Z,19.74
2019-03-26T07:32:00.120Z,19.73
2019-03-26T07:33:00.109Z,19.74
2019-03-26T07:34:00.098Z,19.73
2019-03-26T07:35:00.094Z,19.73
2019-03-26T07:36:00.082Z,19.74
2019-03-26T07:37:00.099Z,19.76
2019-03-26T07:38:00.065Z,19.74
2019-03-26T07:39:00.048Z,19.74
2019-03-26T07:40:00.038Z,19.73
2019-03-26T07:41:00.045Z,19.73
2019-03-26T07:42:00.019Z,19.74
2019-03-26T07:43:00.042Z,19.73
2019-03-26T07:44:00.000Z,19.71
2019-03-26T07:44:59.983Z,19.74
2019-03-26T07:45:59.974Z,19.71
2019-03-26T07:46:59.965Z,19.73
2019-03-26T07:47:59.957Z,19.71
2019-03-26T07:48:59.966Z,19.73
2019-03-26T07:49:59.933Z,19.71
2019-03-26T07:50:59.922Z,19.71
2019-03-26T07:51:59.911Z,19.73
2019-03-26T07:52:59.900Z,19.73
2019-03-26T07:53:59.928Z,19.71
2019-03-26T07:54:59.880Z,19.73
2019-03-26T07:55:59.871Z,19.73
2019-03-26T07:56:59.854Z,19.71
2019-03-26T07:57:59.852Z,19.73
2019-03-26T07:58:59.837Z,19.73
2019-03-26T08:00:00.074Z,19.73
2019-03-26T08:00:59.821Z,19.73
2019-03-26T08:01:59.798Z,19.74
2019-03-26T08:02:59.790Z,19.73
2019-03-26T08:03:59.785Z,19.74
2019-03-26T08:04:59.768Z,19.73
2019-03-26T08:05:59.789Z,19.76
2019-03-26T08:06:59.749Z,19.73
2019-03-26T08:07:59.736Z,19.73
2019-03-26T08:08:59.725Z,19.74
2019-03-26T08:09:59.719Z,19.74
2019-03-26T08:10:59.706Z,19.74
2019-03-26T08:11:59.716Z,19.74
2019-03-26T08:12:59.704Z,19.73
2019-03-26T08:13:59.708Z,19.74
2019-03-26T08:14:59.662Z,19.74
2019-03-26T08:15:59.695Z,19.74
2019-03-26T08:16:59.644Z,19.76
2019-03-26T08:17:59.659Z,19.76
2019-03-26T08:18:59.617Z,19.76
2019-03-26T08:19:59.608Z,19.76
2019-03-26T08:20:59.604Z,19.76
2019-03-26T08:21:59.591Z,19.76
2019-03-26T08:22:59.574Z,19.78
2019-03-26T08:23:59.592Z,19.77
2019-03-26T08:24:59.559Z,19.78
2019-03-26T08:25:59.545Z,19.76
2019-03-26T08:26:59.555Z,19.77
2019-03-26T08:27:59.527Z,19.78
2019-03-26T08:29:00.969Z,19.77
2019-03-26T08:29:59.501Z,19.78
2019-03-26T08:30:59.487Z,19.78
2019-03-26T08:31:59.481Z,19.78
2019-03-26T08:32:59.468Z,19.78
2019-03-26T08:33:59.460Z,19.78
2019-03-26T08:34:59.468Z,19.80
2019-03-26T08:35:59.437Z,19.78
2019-03-26T08:36:59.451Z,19.78
2019-03-26T08:38:11.847Z,19.78
2019-03-26T08:39:00.407Z,19.78
2019-03-26T08:39:59.412Z,19.78
2019-03-26T08:40:59.390Z,19.78
2019-03-26T08:41:59.378Z,19.80
2019-03-26T08:42:59.365Z,19.78
2019-03-26T08:43:59.368Z,19.80
2019-03-26T08:44:59.340Z,19.81
2019-03-26T08:45:59.333Z,19.81
2019-03-26T08:46:59.317Z,19.81
2019-03-26T08:47:59.308Z,19.83
2019-03-26T08:48:59.330Z,19.83
2019-03-26T08:49:59.293Z,19.81
2019-03-26T08:50:59.279Z,19.83
2019-03-26T08:51:59.267Z,19.83
2019-03-26T08:52:59.256Z,19.83
2019-03-26T08:53:59.247Z,19.83
2019-03-26T08:54:59.271Z,19.84
2019-03-26T08:55:59.226Z,19.83
2019-03-26T08:56:59.208Z,19.83
2019-03-26T08:57:59.203Z,19.84
2019-03-26T08:58:59.186Z,19.83
2019-03-26T08:59:59.196Z,19.84
2019-03-26T09:00:59.241Z,19.84
2019-03-26T09:01:59.154Z,19.84
2019-03-26T09:02:59.146Z,19.84
2019-03-26T09:03:59.139Z,19.83
2019-03-26T09:04:59.122Z,19.83
2019-03-26T09:05:59.119Z,19.83
2019-03-26T09:06:59.126Z,19.81
2019-03-26T09:07:59.092Z,19.80
2019-03-26T09:08:59.117Z,19.81
2019-03-26T09:09:59.076Z,19.81
2019-03-26T09:10:59.059Z,19.81
2019-03-26T09:11:59.055Z,19.81
2019-03-26T09:12:59.049Z,19.80
2019-03-26T09:13:59.029Z,19.81
2019-03-26T09:14:59.051Z,19.80
2019-03-26T09:15:59.007Z,19.80
2019-03-26T09:16:59.000Z,19.80
2019-03-26T09:17:59.050Z,19.80
2019-03-26T09:18:58.984Z,19.81
2019-03-26T09:19:58.964Z,19.81
2019-03-26T09:20:58.976Z,19.81
2019-03-26T09:21:58.943Z,19.81
2019-03-26T09:22:58.945Z,19.80
2019-03-26T09:23:58.929Z,19.83
2019-03-26T09:24:58.912Z,19.83
2019-03-26T09:25:58.905Z,19.81
2019-03-26T09:26:58.922Z,19.83
2019-03-26T09:27:58.883Z,19.83
2019-03-26T09:28:58.870Z,19.83
2019-03-26T09:29:58.864Z,19.83
2019-03-26T09:30:58.850Z,19.84
2019-03-26T09:31:58.840Z,19.86
2019-03-26T09:32:58.856Z,19.84
2019-03-26T09:33:58.820Z,19.84
2019-03-26T09:34:58.806Z,19.86
2019-03-26T09:35:58.801Z,19.86
2019-03-26T09:36:58.792Z,19.84
2019-03-26T09:37:59.000Z,19.84
2019-03-26T09:38:58.766Z,19.84
2019-03-26T09:39:58.758Z,19.84
2019-03-26T09:40:58.749Z,19.84
2019-03-26T09:41:58.743Z,19.84
2019-03-26T09:42:58.722Z,19.86
2019-03-26T09:43:58.746Z,19.84
2019-03-26T09:44:58.808Z,19.86
2019-03-26T09:45:58.703Z,19.86
2019-03-26T09:46:58.686Z,19.87
2019-03-26T09:47:58.673Z,19.87
2019-03-26T09:48:58.660Z,19.86
2019-03-26T09:49:58.668Z,19.87
2019-03-26T09:50:58.641Z,19.87
2019-03-26T09:51:58.626Z,19.87
2019-03-26T09:52:58.621Z,19.87
2019-03-26T09:53:58.633Z,19.87
2019-03-26T09:54:58.598Z,19.87
2019-03-26T09:55:58.596Z,19.88
2019-03-26T09:56:58.600Z,19.88
2019-03-26T09:57:58.570Z,19.88
2019-03-26T09:58:58.576Z,19.88
2019-03-26T09:59:58.546Z,19.88
2019-03-26T10:00:58.535Z,19.88
2019-03-26T10:01:58.526Z,19.88
2019-03-26T10:02:58.515Z,19.91
2019-03-26T10:03:58.522Z,19.91
2019-03-26T10:04:58.491Z,19.91
2019-03-26T10:05:58.507Z,19.88
2019-03-26T10:06:58.468Z,19.91
2019-03-26T10:07:58.462Z,19.88
2019-03-26T10:08:58.481Z,19.91
2019-03-26T10:09:58.439Z,19.91
2019-03-26T10:10:58.429Z,19.92
2019-03-26T10:11:58.417Z,19.91
2019-03-26T10:12:58.406Z,19.92
2019-03-26T10:13:58.399Z,19.92
2019-03-26T10:14:58.411Z,19.91
2019-03-26T10:15:58.375Z,19.91
2019-03-26T10:16:58.366Z,19.92
2019-03-26T10:17:58.356Z,19.94
2019-03-26T10:18:58.357Z,19.92
2019-03-26T10:19:58.568Z,19.94
2019-03-26T10:20:58.320Z,19.94
2019-03-26T10:21:58.307Z,19.95
2019-03-26T10:22:58.305Z,19.95
2019-03-26T10:23:58.290Z,19.95
2019-03-26T10:24:58.275Z,19.96
2019-03-26T10:25:58.293Z,19.96
2019-03-26T10:26:58.286Z,19.96
2019-03-26T10:27:58.246Z,19.95
2019-03-26T10:28:58.255Z,19.96
2019-03-26T10:29:58.227Z,19.95
2019-03-26T10:30:58.220Z,19.95
2019-03-26T10:31:58.231Z,19.96
2019-03-26T10:32:58.193Z,19.96
2019-03-26T10:33:58.189Z,19.94
2019-03-26T10:34:58.172Z,19.96
2019-03-26T10:35:58.165Z,19.95
2019-03-26T10:36:58.149Z,19.95
2019-03-26T10:37:58.170Z,19.95
2019-03-26T10:39:05.890Z,19.96
2019-03-26T10:39:59.113Z,19.95
2019-03-26T10:40:58.111Z,19.95
2019-03-26T10:41:58.096Z,19.96
2019-03-26T10:42:58.087Z,19.95
2019-03-26T10:43:58.103Z,19.95
2019-03-26T10:44:58.063Z,19.96
2019-03-26T10:45:58.050Z,19.95
2019-03-26T10:46:58.040Z,19.95
2019-03-26T10:47:58.050Z,19.95
2019-03-26T10:48:58.025Z,19.95
2019-03-26T10:49:58.035Z,19.95
2019-03-26T10:50:57.999Z,19.96
2019-03-26T10:51:58.000Z,19.96
2019-03-26T10:52:57.974Z,19.96
2019-03-26T10:53:57.966Z,19.96
2019-03-26T10:54:57.957Z,19.96
2019-03-26T10:55:57.968Z,19.96
2019-03-26T10:56:57.933Z,19.95
2019-03-26T10:57:57.943Z,19.94
2019-03-26T10:58:57.915Z,19.95
2019-03-26T10:59:57.907Z,19.95
2019-03-26T11:00:57.910Z,19.94
2019-03-26T11:01:59.918Z,19.92
2019-03-26T11:02:57.887Z,19.94
2019-03-26T11:03:57.866Z,19.94
2019-03-26T11:04:57.854Z,19.94
2019-03-26T11:05:57.842Z,19.94
2019-03-26T11:06:58.040Z,19.94
2019-03-26T11:07:57.819Z,19.95
2019-03-26T11:08:57.807Z,19.94
2019-03-26T11:09:57.796Z,19.94
2019-03-26T11:10:57.785Z,19.95
2019-03-26T11:11:57.777Z,19.95
2019-03-26T11:12:57.786Z,19.95
2019-03-26T11:13:58.899Z,19.95
2019-03-26T11:14:57.762Z,19.95
2019-03-26T11:15:57.727Z,19.95
2019-03-26T11:16:57.722Z,19.95
2019-03-26T11:17:57.743Z,19.94
2019-03-26T11:18:57.701Z,19.94
2019-03-26T11:19:57.690Z,19.94
2019-03-26T11:21:02.623Z,19.94
2019-03-26T11:21:58.666Z,19.94
2019-03-26T11:22:57.659Z,19.95
2019-03-26T11:23:57.675Z,19.96
2019-03-26T11:24:57.659Z,19.95
2019-03-26T11:25:57.627Z,19.94
2019-03-26T11:26:57.615Z,19.94
2019-03-26T11:27:57.600Z,19.95
2019-03-26T11:28:57.593Z,19.95
2019-03-26T11:29:57.625Z,19.95
2019-03-26T11:30:57.572Z,19.94
2019-03-26T11:31:57.559Z,19.95
2019-03-26T11:32:57.549Z,19.94
2019-03-26T11:33:57.542Z,19.95
2019-03-26T11:34:57.530Z,19.94
2019-03-26T11:35:57.538Z,19.95
2019-03-26T11:36:57.506Z,19.95
2019-03-26T11:37:57.494Z,19.96
2019-03-26T11:38:57.491Z,19.98
2019-03-26T11:39:57.475Z,19.96
2019-03-26T11:40:57.489Z,19.94
2019-03-26T11:41:57.456Z,19.98
2019-03-26T11:42:57.443Z,19.96
2019-03-26T11:43:57.437Z,19.96
2019-03-26T11:44:59.358Z,19.98
2019-03-26T11:45:57.440Z,19.95
2019-03-26T11:46:57.398Z,19.96
2019-03-26T11:47:57.400Z,19.95
2019-03-26T11:48:57.386Z,19.96
2019-03-26T11:49:57.369Z,19.95
2019-03-26T11:50:57.390Z,19.96
2019-03-26T11:51:57.349Z,19.95
2019-03-26T11:52:57.343Z,19.95
2019-03-26T11:53:57.327Z,19.96
2019-03-26T11:54:57.316Z,19.95
2019-03-26T11:55:57.309Z,19.95
2019-03-26T11:56:57.317Z,19.95
2019-03-26T11:57:57.311Z,19.95
2019-03-26T11:58:57.282Z,19.94
2019-03-26T11:59:57.267Z,19.96
2019-03-26T12:00:57.259Z,19.95
2019-03-26T12:01:57.269Z,19.96
2019-03-26T12:02:57.233Z,19.95
2019-03-26T12:03:57.278Z,19.95
2019-03-26T12:04:57.212Z,19.95
2019-03-26T12:05:57.199Z,19.95
2019-03-26T12:06:57.191Z,19.94
2019-03-26T12:07:57.178Z,19.95
2019-03-26T12:08:57.207Z,19.95
2019-03-26T12:09:57.158Z,19.95
2019-03-26T12:10:57.161Z,19.95
2019-03-26T12:11:57.134Z,19.92
2019-03-26T12:12:57.125Z,19.92
2019-03-26T12:13:57.117Z,19.94
2019-03-26T12:14:57.138Z,19.94
2019-03-26T12:15:57.090Z,19.95
2019-03-26T12:16:57.089Z,19.95
2019-03-26T12:17:57.069Z,19.94
2019-03-26T12:18:57.062Z,19.94
2019-03-26T12:19:57.054Z,19.94
2019-03-26T12:20:57.079Z,19.94
2019-03-26T12:21:57.030Z,19.94
2019-03-26T12:22:57.023Z,19.94
2019-03-26T12:23:57.009Z,19.94
2019-03-26T12:24:56.999Z,19.92
2019-03-26T12:25:57.005Z,19.92
2019-03-26T12:26:56.973Z,19.92
2019-03-26T12:27:56.963Z,19.92
2019-03-26T12:28:56.959Z,19.91
2019-03-26T12:29:56.945Z,19.91
2019-03-26T12:30:56.977Z,19.88
2019-03-26T12:31:56.920Z,19.91
2019-03-26T12:32:56.917Z,19.91
2019-03-26T12:33:56.903Z,19.88
2019-03-26T12:34:56.888Z,19.91
2019-03-26T12:35:56.901Z,19.91
2019-03-26T12:36:56.867Z,19.88
2019-03-26T12:37:56.864Z,19.88
2019-03-26T12:38:56.856Z,19.91
2019-03-26T12:40:00.175Z,19.91
2019-03-26T12:40:57.066Z,19.91
2019-03-26T12:41:56.822Z,19.91
2019-03-26T12:42:56.835Z,19.88
2019-03-26T12:43:56.798Z,19.88
2019-03-26T12:44:56.789Z,19.88
2019-03-26T12:45:56.783Z,19.91
2019-03-26T12:46:58.343Z,19.91
2019-03-26T12:47:56.756Z,19.88
2019-03-26T12:48:56.761Z,19.88
2019-03-26T12:49:56.740Z,19.88
2019-03-26T12:50:56.727Z,19.91
2019-03-26T12:51:56.712Z,19.91